Pagrindinis puslapis
METAR-TAF:

METAR-TAF

Oro uostai :

Halmstadas, Švedija

platuma: 56-41N, ilguma: 012-50E, Aukštis: 30 m

Dabartinis oras

Ataskaita buvo paskelbta 49 minutes, ne 20:50 UTC
Vėjas 9 kt iš Rytų/Pietryčių
Temperatūra 14°C
Drėgmė 82%
Slėgis 1009 hPa
Matomumas 10 km arba daugiau

METAR: ESMT 162050Z AUTO 11009KT 9999 SCT062/// BKN086/// 14/11 Q1009

Laikas: 23:39 (21:39 UTC)

Prognozė

Ataskaita buvo paskelbta 7 valandos ir 26 minutes, ne 14:13 UTC
Prognozė galioja nuo 16 metu 15 UTC su 16 metu 19 UTC
Vėjas 12 kt iš Pietryčių
Matomumas 10 km arba daugiau
nėra debesų žemiau 1500 m ir nėra kamuolinių lietaus debesų
Laikinai
nuo 16 metu 15 UTC su 16 metu 19 UTC
Išsisklaidę debesys ne aukštis 4000 ft, Liūtiniai kamuoliniai debesys.
lietus,

TAF: ESMT 161413Z 1615/1619 14012KT CAVOK TEMPO 1615/1619 SHRA SCT040CB

Orai ataskaitas ir orų prognozės (METAR, TAF).

turimą stotys yra geltonos ir raudonos taškus žemėlapyje.

Perkelti pele per norėdami pamatyti stoties vardą.

Tada spustelėkite, norėdami matyti oro stebėjimo ir prognozės.

Norėdami pakeisti žemėlapį: spustelėkite ant žalios mygtukų su juodo kryžiaus žemyn,; žalią mygtuką su brūkšneliu, jei norite nutolinti; arba žalių rodyklių gretimoms žemėlapius.


METAR-TAF: